createdAt,value
2022-11-30T00:00:21.087Z,53.77
2022-11-30T00:03:08.533Z,53.59
2022-11-30T00:05:54.743Z,53.53
2022-11-30T00:08:40.644Z,54.01
2022-11-30T00:11:28.669Z,53.83
2022-11-30T00:14:14.929Z,53.68
2022-11-30T00:17:00.904Z,53.56
2022-11-30T00:19:46.805Z,53.86
2022-11-30T00:22:32.801Z,53.70
2022-11-30T00:25:18.724Z,53.78
2022-11-30T00:28:04.924Z,53.53
2022-11-30T00:31:02.437Z,53.69
2022-11-30T00:33:48.772Z,53.90
2022-11-30T00:36:34.465Z,53.97
2022-11-30T00:39:20.289Z,53.89
2022-11-30T00:42:06.296Z,53.58
2022-11-30T00:44:52.523Z,53.67
2022-11-30T00:47:39.095Z,53.89
2022-11-30T00:50:24.963Z,54.15
2022-11-30T00:53:10.951Z,53.56
2022-11-30T00:55:57.329Z,54.00
2022-11-30T00:58:43.437Z,54.31
2022-11-30T01:01:31.427Z,54.03
2022-11-30T01:04:17.363Z,54.16
2022-11-30T01:07:03.090Z,54.17
2022-11-30T01:09:48.960Z,54.24
2022-11-30T01:12:34.754Z,54.22
2022-11-30T01:15:20.760Z,54.01
2022-11-30T01:18:07.050Z,54.22
2022-11-30T01:20:52.931Z,54.26
2022-11-30T01:23:39.389Z,54.59
2022-11-30T01:26:25.626Z,54.26
2022-11-30T01:29:11.742Z,54.39
2022-11-30T01:31:58.012Z,54.24
2022-11-30T01:34:44.790Z,54.71
2022-11-30T01:37:30.742Z,54.19
2022-11-30T01:40:16.866Z,54.26
2022-11-30T01:43:03.920Z,54.28
2022-11-30T01:45:50.157Z,54.26
2022-11-30T01:48:36.135Z,54.41
2022-11-30T01:51:22.257Z,54.61
2022-11-30T01:54:11.028Z,54.81
2022-11-30T01:56:59.629Z,54.31
2022-11-30T01:59:46.359Z,54.30
2022-11-30T02:02:47.684Z,54.34
2022-11-30T02:05:37.350Z,54.78
2022-11-30T02:08:23.789Z,54.29
2022-11-30T02:11:13.609Z,54.44
2022-11-30T02:14:11.930Z,54.43
2022-11-30T02:17:12.938Z,54.81
2022-11-30T02:20:14.024Z,54.54
2022-11-30T02:23:20.854Z,54.54
2022-11-30T02:26:16.103Z,55.05
2022-11-30T02:29:20.956Z,54.63
2022-11-30T02:32:17.480Z,54.72
2022-11-30T02:35:04.459Z,54.49
2022-11-30T02:37:52.086Z,54.25
2022-11-30T02:40:38.568Z,54.61
2022-11-30T02:43:26.251Z,54.77
2022-11-30T02:46:31.722Z,54.60
2022-11-30T02:49:20.761Z,54.63
2022-11-30T02:52:07.998Z,54.77
2022-11-30T02:54:59.827Z,54.76
2022-11-30T02:57:45.989Z,54.63
2022-11-30T03:00:32.457Z,54.47
2022-11-30T03:03:18.610Z,54.87
2022-11-30T03:06:04.461Z,54.55
2022-11-30T03:08:50.620Z,55.09
2022-11-30T03:11:37.106Z,54.82
2022-11-30T03:14:22.965Z,54.60
2022-11-30T03:17:08.882Z,54.66
2022-11-30T03:19:54.867Z,54.71
2022-11-30T03:22:40.650Z,55.05
2022-11-30T03:25:27.180Z,54.70
2022-11-30T03:28:13.247Z,55.24
2022-11-30T03:30:59.304Z,55.18
2022-11-30T03:33:45.277Z,54.65
2022-11-30T03:36:31.105Z,54.98
2022-11-30T03:39:17.124Z,54.79
2022-11-30T03:42:03.658Z,54.63
2022-11-30T03:44:49.782Z,55.03
2022-11-30T03:47:35.595Z,54.92
2022-11-30T03:50:21.767Z,55.08
2022-11-30T03:53:07.950Z,54.74
2022-11-30T03:55:55.718Z,54.93
2022-11-30T03:58:42.291Z,55.16
2022-11-30T04:01:28.275Z,54.82
2022-11-30T04:04:14.373Z,54.64
2022-11-30T04:07:00.474Z,54.95
2022-11-30T04:09:46.359Z,55.28
2022-11-30T04:12:32.273Z,54.85
2022-11-30T04:15:18.144Z,55.22
2022-11-30T04:18:04.056Z,54.83
2022-11-30T04:20:54.701Z,55.16
2022-11-30T04:23:40.947Z,54.91
2022-11-30T04:26:26.917Z,55.39
2022-11-30T04:29:12.891Z,54.85
2022-11-30T04:31:58.749Z,55.06
2022-11-30T04:34:45.059Z,55.18
2022-11-30T04:37:31.095Z,54.89
2022-11-30T04:40:17.347Z,55.15
2022-11-30T04:43:03.559Z,55.28
2022-11-30T04:45:49.262Z,55.27
2022-11-30T04:48:35.406Z,55.27
2022-11-30T04:51:21.598Z,55.33
2022-11-30T04:54:07.403Z,54.94
2022-11-30T04:56:53.316Z,55.10
2022-11-30T04:59:39.373Z,55.05
2022-11-30T05:02:25.049Z,55.35
2022-11-30T05:05:11.624Z,55.45
2022-11-30T05:07:59.363Z,54.86
2022-11-30T05:10:50.168Z,55.15
2022-11-30T05:13:38.676Z,55.58
2022-11-30T05:16:24.696Z,55.02
2022-11-30T05:19:10.427Z,55.74
2022-11-30T05:21:56.119Z,55.59
2022-11-30T05:24:42.255Z,55.56
2022-11-30T05:27:28.296Z,55.07
2022-11-30T05:30:14.542Z,55.24
2022-11-30T05:33:00.760Z,55.53
2022-11-30T05:35:46.634Z,55.15
2022-11-30T05:38:32.597Z,55.45
2022-11-30T05:41:18.499Z,55.08
2022-11-30T05:44:04.896Z,55.47
2022-11-30T05:46:51.307Z,55.56
2022-11-30T05:49:37.056Z,55.31
2022-11-30T05:52:23.063Z,55.78
2022-11-30T05:55:09.059Z,55.45
2022-11-30T05:57:55.220Z,55.60
2022-11-30T06:00:41.190Z,55.23
2022-11-30T06:03:29.792Z,55.48
2022-11-30T06:06:15.660Z,55.27
2022-11-30T06:09:01.623Z,55.61
2022-11-30T06:11:47.733Z,55.38
2022-11-30T06:14:33.597Z,55.48
2022-11-30T06:17:19.527Z,55.53
2022-11-30T06:20:06.571Z,55.50
2022-11-30T06:22:52.818Z,55.27
2022-11-30T06:25:38.870Z,55.73
2022-11-30T06:28:25.159Z,55.33
2022-11-30T06:31:11.437Z,55.13
2022-11-30T06:45:50.964Z,57.67
2022-11-30T06:48:37.260Z,57.73
2022-11-30T06:51:23.113Z,57.56
2022-11-30T06:54:09.191Z,57.53
2022-11-30T06:56:56.743Z,57.33
2022-11-30T06:59:42.814Z,56.92
2022-11-30T07:02:28.589Z,57.25
2022-11-30T07:05:14.625Z,57.22
2022-11-30T07:08:00.531Z,56.84
2022-11-30T07:10:47.124Z,56.77
2022-11-30T07:13:33.739Z,56.91
2022-11-30T07:16:20.042Z,56.66
2022-11-30T07:19:05.975Z,56.10
2022-11-30T07:21:51.905Z,56.29
2022-11-30T07:24:56.615Z,56.29
2022-11-30T07:27:42.676Z,56.28
2022-11-30T07:30:31.456Z,56.09
2022-11-30T07:33:17.768Z,56.15
2022-11-30T07:36:03.617Z,56.36
2022-11-30T07:38:50.097Z,56.40
2022-11-30T07:41:36.331Z,56.41
2022-11-30T07:44:22.104Z,55.96
2022-11-30T07:47:08.018Z,56.67
2022-11-30T07:49:54.004Z,55.96
2022-11-30T07:52:40.150Z,56.02
2022-11-30T07:55:26.331Z,55.95
2022-11-30T07:58:17.105Z,56.24
2022-11-30T08:01:04.796Z,56.22
2022-11-30T08:03:51.821Z,56.05
2022-11-30T08:06:37.687Z,55.85
2022-11-30T08:09:23.407Z,56.07
2022-11-30T08:12:09.421Z,56.46
2022-11-30T08:15:19.275Z,56.00
2022-11-30T08:18:05.499Z,56.25
2022-11-30T08:21:00.425Z,56.59
2022-11-30T08:23:51.773Z,56.74
2022-11-30T08:26:37.482Z,56.22
2022-11-30T08:29:23.387Z,56.15
2022-11-30T08:32:09.378Z,56.11
2022-11-30T08:34:55.306Z,56.18
2022-11-30T08:37:41.139Z,56.33
2022-11-30T08:40:27.622Z,56.25
2022-11-30T08:43:13.510Z,56.22
2022-11-30T08:45:59.684Z,56.60
2022-11-30T08:48:46.087Z,56.39
2022-11-30T08:51:53.776Z,56.19
2022-11-30T08:54:39.471Z,56.40
2022-11-30T08:57:26.847Z,56.56
2022-11-30T09:00:13.284Z,56.45
2022-11-30T09:02:59.170Z,56.79
2022-11-30T09:05:45.143Z,56.36
2022-11-30T09:08:31.496Z,56.23
2022-11-30T09:11:23.937Z,56.57
2022-11-30T09:14:10.320Z,56.92
2022-11-30T09:16:56.410Z,56.58
2022-11-30T09:19:42.202Z,56.46
2022-11-30T09:22:28.558Z,56.80
2022-11-30T09:25:14.582Z,56.81
2022-11-30T09:28:00.645Z,56.64
2022-11-30T09:30:46.768Z,56.84
2022-11-30T09:33:33.251Z,56.72
2022-11-30T09:36:20.966Z,56.64
2022-11-30T09:39:08.982Z,56.44
2022-11-30T09:42:10.196Z,56.64
2022-11-30T09:45:17.916Z,56.95
2022-11-30T09:48:16.205Z,56.96
2022-11-30T09:51:08.299Z,56.54
2022-11-30T09:53:59.948Z,56.74
2022-11-30T09:56:46.689Z,56.82
2022-11-30T09:59:34.703Z,56.62
2022-11-30T10:02:28.700Z,56.37
2022-11-30T10:05:23.826Z,56.58
2022-11-30T10:08:50.498Z,56.82
2022-11-30T10:11:55.165Z,56.77
2022-11-30T10:14:47.504Z,57.04
2022-11-30T10:17:49.471Z,56.84
2022-11-30T10:20:50.299Z,56.94
2022-11-30T10:24:03.755Z,56.84
2022-11-30T10:27:01.228Z,56.80
2022-11-30T10:29:47.080Z,57.01
2022-11-30T10:32:37.362Z,56.94
2022-11-30T10:35:33.492Z,57.35
2022-11-30T10:38:26.934Z,57.42
2022-11-30T10:41:36.114Z,57.02
2022-11-30T10:44:27.492Z,57.15
2022-11-30T10:47:21.924Z,57.34
2022-11-30T10:50:09.841Z,56.95
2022-11-30T10:52:58.035Z,57.16
2022-11-30T10:55:47.786Z,57.10
2022-11-30T10:58:41.365Z,57.32
2022-11-30T11:01:37.366Z,57.10
2022-11-30T11:04:28.003Z,57.07
2022-11-30T11:07:14.509Z,57.21
2022-11-30T11:10:02.285Z,56.87
2022-11-30T11:12:53.704Z,57.43
2022-11-30T11:15:40.174Z,57.34
2022-11-30T11:18:27.921Z,57.40
2022-11-30T11:21:19.388Z,57.34
2022-11-30T11:24:09.411Z,56.85
2022-11-30T11:26:56.593Z,57.12
2022-11-30T11:29:42.873Z,57.23
2022-11-30T11:32:30.451Z,57.02
2022-11-30T11:36:06.821Z,57.58
2022-11-30T11:38:53.120Z,57.46
2022-11-30T11:41:40.150Z,57.01
2022-11-30T11:44:28.058Z,57.16
2022-11-30T11:47:39.056Z,57.16
2022-11-30T11:51:05.131Z,56.95
2022-11-30T11:53:51.728Z,57.44
2022-11-30T11:56:39.617Z,57.02
2022-11-30T11:59:49.051Z,57.44
2022-11-30T12:03:00.369Z,57.66
2022-11-30T12:05:50.250Z,57.34
2022-11-30T12:08:56.882Z,57.33
2022-11-30T12:11:47.497Z,57.51
2022-11-30T12:14:35.309Z,57.46
2022-11-30T12:17:47.923Z,57.44
2022-11-30T12:20:33.958Z,57.13
2022-11-30T12:23:41.266Z,57.36
2022-11-30T12:26:47.507Z,57.43
2022-11-30T12:29:56.561Z,57.41
2022-11-30T12:32:49.372Z,57.40
2022-11-30T12:35:53.983Z,57.51
2022-11-30T12:38:58.808Z,57.56
2022-11-30T12:41:51.708Z,57.29
2022-11-30T12:44:43.478Z,57.88
2022-11-30T12:47:50.087Z,57.31
2022-11-30T12:50:59.207Z,57.46
2022-11-30T12:54:04.032Z,57.73
2022-11-30T12:56:55.251Z,57.34
2022-11-30T13:00:05.557Z,57.41
2022-11-30T13:03:01.035Z,57.43
2022-11-30T13:06:09.669Z,57.49
2022-11-30T13:09:04.247Z,57.54
2022-11-30T13:11:55.411Z,57.60
2022-11-30T13:14:41.685Z,57.46
2022-11-30T13:17:27.823Z,57.58
2022-11-30T13:20:29.133Z,57.41
2022-11-30T13:23:24.155Z,57.72
2022-11-30T13:26:31.582Z,57.23
2022-11-30T13:29:35.908Z,57.35
2022-11-30T13:32:56.028Z,57.30
2022-11-30T13:35:28.200Z,57.27
2022-11-30T13:41:23.594Z,57.26
2022-11-30T13:44:27.033Z,57.35
2022-11-30T13:47:34.555Z,57.46
2022-11-30T13:50:24.055Z,57.51
2022-11-30T13:53:23.710Z,57.69
2022-11-30T13:56:18.955Z,57.74
2022-11-30T13:59:23.457Z,57.15
2022-11-30T14:02:36.638Z,57.64
2022-11-30T14:05:36.329Z,57.72
2022-11-30T14:08:22.169Z,57.52
2022-11-30T14:11:43.026Z,57.83
2022-11-30T14:14:46.182Z,57.44
2022-11-30T14:17:35.883Z,57.61
2022-11-30T14:20:24.635Z,57.65
2022-11-30T14:23:17.881Z,57.73
2022-11-30T14:26:11.319Z,57.56
2022-11-30T14:29:10.647Z,57.64
2022-11-30T14:32:24.518Z,57.89
2022-11-30T14:35:13.278Z,57.87
2022-11-30T14:38:00.911Z,57.69
2022-11-30T14:40:51.277Z,57.92
2022-11-30T14:43:37.174Z,57.75
2022-11-30T14:46:25.117Z,57.75
2022-11-30T14:49:23.819Z,57.98
2022-11-30T14:52:13.670Z,57.78
2022-11-30T14:55:27.041Z,58.01
2022-11-30T14:58:16.279Z,57.88
2022-11-30T15:01:06.433Z,58.40
2022-11-30T15:03:54.786Z,57.99
2022-11-30T15:06:41.630Z,57.99
2022-11-30T15:09:31.280Z,58.17
2022-11-30T15:12:22.210Z,58.08
2022-11-30T15:15:21.298Z,57.84
2022-11-30T15:18:13.012Z,58.15
2022-11-30T15:21:02.363Z,58.19
2022-11-30T15:23:51.355Z,58.12
2022-11-30T15:26:59.430Z,57.71
2022-11-30T15:29:49.787Z,57.98
2022-11-30T15:32:35.828Z,58.17
2022-11-30T15:35:30.771Z,57.97
2022-11-30T15:38:29.960Z,58.13
2022-11-30T15:41:25.673Z,58.09
2022-11-30T15:44:23.984Z,58.13
2022-11-30T15:47:38.648Z,58.24
2022-11-30T15:50:30.786Z,58.12
2022-11-30T15:56:32.891Z,57.87
2022-11-30T15:59:24.204Z,58.18
2022-11-30T16:02:26.730Z,57.95
2022-11-30T16:05:14.691Z,58.08
2022-11-30T16:08:03.755Z,57.96
2022-11-30T16:10:49.955Z,58.06
2022-11-30T16:13:36.266Z,58.17
2022-11-30T16:16:28.361Z,58.08
2022-11-30T16:22:00.997Z,58.21
2022-11-30T16:24:47.099Z,58.25
2022-11-30T16:27:32.981Z,58.29
2022-11-30T16:30:21.410Z,58.21
2022-11-30T16:33:17.544Z,58.04
2022-11-30T16:36:08.134Z,58.29
2022-11-30T16:38:54.506Z,57.96
2022-11-30T16:41:40.766Z,58.27
2022-11-30T16:44:26.763Z,58.17
2022-11-30T16:47:12.998Z,58.25
2022-11-30T16:49:59.042Z,58.06
2022-11-30T16:52:45.304Z,58.03
2022-11-30T16:55:35.122Z,58.01
2022-11-30T16:58:22.290Z,57.95
2022-11-30T17:01:13.891Z,58.16
2022-11-30T17:04:00.081Z,57.84
2022-11-30T17:06:50.234Z,58.15
2022-11-30T17:09:37.601Z,57.96
2022-11-30T17:12:23.598Z,58.23
2022-11-30T17:15:18.327Z,57.81
2022-11-30T17:18:04.368Z,57.98
2022-11-30T17:20:51.197Z,58.18
2022-11-30T17:23:37.563Z,58.07
2022-11-30T17:26:24.062Z,58.64
2022-11-30T17:29:09.975Z,57.78
2022-11-30T17:31:56.100Z,57.82
2022-11-30T17:34:41.975Z,57.99
2022-11-30T17:37:27.901Z,58.19
2022-11-30T17:40:16.174Z,57.85
2022-11-30T17:43:02.163Z,58.23
2022-11-30T17:45:48.353Z,57.94
2022-11-30T17:48:34.273Z,57.88
2022-11-30T17:51:20.362Z,57.87
2022-11-30T17:54:06.315Z,57.80
2022-11-30T17:56:53.020Z,58.34
2022-11-30T17:59:39.084Z,58.34
2022-11-30T18:02:25.139Z,57.88
2022-11-30T18:05:11.265Z,58.31
2022-11-30T18:07:57.242Z,57.93
2022-11-30T18:10:45.870Z,58.44
2022-11-30T18:13:32.017Z,58.36
2022-11-30T18:16:20.675Z,58.14
2022-11-30T18:19:12.076Z,58.41
2022-11-30T18:21:58.016Z,58.04
2022-11-30T18:24:43.997Z,57.94
2022-11-30T18:27:30.281Z,58.22
2022-11-30T18:30:16.454Z,58.12
2022-11-30T18:33:02.658Z,58.03
2022-11-30T18:35:48.559Z,58.35
2022-11-30T18:38:38.045Z,58.60
2022-11-30T18:41:26.370Z,58.49
2022-11-30T18:44:12.753Z,58.22
2022-11-30T18:46:58.706Z,58.22
2022-11-30T18:49:44.717Z,58.51
2022-11-30T18:52:30.789Z,58.26
2022-11-30T18:55:16.942Z,58.35
2022-11-30T18:58:03.473Z,58.23
2022-11-30T19:00:49.607Z,58.68
2022-11-30T19:03:37.205Z,58.51
2022-11-30T19:06:29.656Z,58.39
2022-11-30T19:09:16.127Z,58.29
2022-11-30T19:12:02.174Z,58.69
2022-11-30T19:14:49.561Z,58.43
2022-11-30T19:17:36.004Z,58.75
2022-11-30T19:20:22.821Z,58.51
2022-11-30T19:23:08.893Z,58.94
2022-11-30T19:25:59.917Z,58.84
2022-11-30T19:28:46.266Z,58.65
2022-11-30T19:31:32.168Z,58.65
2022-11-30T19:34:18.213Z,58.68
2022-11-30T19:37:05.139Z,58.85
2022-11-30T19:39:51.700Z,59.02
2022-11-30T19:42:37.870Z,58.67
2022-11-30T19:45:23.794Z,58.81
2022-11-30T19:48:09.963Z,58.88
2022-11-30T19:50:56.942Z,58.93
2022-11-30T19:53:44.845Z,59.17
2022-11-30T19:56:34.643Z,58.94
2022-11-30T19:59:21.015Z,58.93
2022-11-30T20:02:07.022Z,58.98
2022-11-30T20:04:52.893Z,59.01
2022-11-30T20:07:39.074Z,59.29
2022-11-30T20:10:30.543Z,58.98
2022-11-30T20:13:17.703Z,59.29
2022-11-30T20:16:23.005Z,58.86
2022-11-30T20:19:09.298Z,58.95
2022-11-30T20:21:55.394Z,59.45
2022-11-30T20:24:41.693Z,58.95
2022-11-30T20:27:27.707Z,59.10
2022-11-30T20:30:13.730Z,59.23
2022-11-30T20:32:59.908Z,58.86
2022-11-30T20:35:46.025Z,58.92
2022-11-30T20:38:32.322Z,59.26
2022-11-30T20:41:23.063Z,59.03
2022-11-30T20:44:14.378Z,58.88
2022-11-30T20:47:00.351Z,59.48
2022-11-30T20:49:46.289Z,59.37
2022-11-30T20:52:32.672Z,58.98
2022-11-30T20:55:19.108Z,58.99
2022-11-30T20:58:05.228Z,59.36
2022-11-30T21:00:51.634Z,59.04
2022-11-30T21:03:38.317Z,59.23
2022-11-30T21:06:24.173Z,59.31
2022-11-30T21:09:10.661Z,59.10
2022-11-30T21:11:56.506Z,59.19
2022-11-30T21:14:42.453Z,59.07
2022-11-30T21:17:28.577Z,59.26
2022-11-30T21:20:14.351Z,59.18
2022-11-30T21:23:00.371Z,59.38
2022-11-30T21:25:47.094Z,59.25
2022-11-30T21:28:37.843Z,59.00
2022-11-30T21:31:24.897Z,59.51
2022-11-30T21:34:11.345Z,59.31
2022-11-30T21:36:59.672Z,59.28
2022-11-30T21:39:45.450Z,59.46
2022-11-30T21:42:31.464Z,59.40
2022-11-30T21:45:17.516Z,59.07
2022-11-30T21:48:03.710Z,58.94
2022-11-30T21:50:57.169Z,59.63
2022-11-30T21:53:48.682Z,59.34
2022-11-30T21:56:37.491Z,59.07
2022-11-30T21:59:23.697Z,59.27
2022-11-30T22:02:12.034Z,59.52
2022-11-30T22:04:58.029Z,59.34
2022-11-30T22:07:46.615Z,59.64
2022-11-30T22:10:32.871Z,59.52
2022-11-30T22:13:18.630Z,59.40
2022-11-30T22:16:13.703Z,59.46
2022-11-30T22:19:00.004Z,59.36
2022-11-30T22:21:50.061Z,59.53
2022-11-30T22:24:36.576Z,59.09
2022-11-30T22:27:22.441Z,59.27
2022-11-30T22:30:09.006Z,59.54
2022-11-30T22:32:55.658Z,59.18
2022-11-30T22:35:41.624Z,59.20
2022-11-30T22:38:28.726Z,59.19
2022-11-30T22:41:16.804Z,59.70
2022-11-30T22:44:03.555Z,59.28
2022-11-30T22:46:49.578Z,59.57
2022-11-30T22:49:35.902Z,59.48
2022-11-30T22:52:36.391Z,59.51
2022-11-30T22:55:27.863Z,59.72
2022-11-30T22:58:14.527Z,59.24
2022-11-30T23:01:12.843Z,59.57
2022-11-30T23:04:05.230Z,59.65
2022-11-30T23:06:52.055Z,59.50
2022-11-30T23:09:38.189Z,59.24
2022-11-30T23:12:50.946Z,59.40
2022-11-30T23:15:30.336Z,59.61
2022-11-30T23:18:17.790Z,59.88
2022-11-30T23:21:09.822Z,59.54
2022-11-30T23:23:57.167Z,59.53
2022-11-30T23:26:43.499Z,59.48
2022-11-30T23:29:29.350Z,59.62
2022-11-30T23:32:15.848Z,59.85
2022-11-30T23:35:01.896Z,59.39
2022-11-30T23:37:47.920Z,59.52
2022-11-30T23:40:33.968Z,59.98
2022-11-30T23:43:19.987Z,59.30
2022-11-30T23:46:07.957Z,59.57
2022-11-30T23:48:55.757Z,59.74
2022-11-30T23:51:42.791Z,59.44
2022-11-30T23:54:28.601Z,59.44
2022-11-30T23:57:14.566Z,59.60
